createdAt,value
2018-02-23T00:01:11.667Z,10.73
2018-02-23T00:03:39.871Z,13.33
2018-02-23T00:06:07.378Z,17.20
2018-02-23T00:08:34.850Z,13.20
2018-02-23T00:11:02.358Z,14.00
2018-02-23T00:13:30.609Z,16.27
2018-02-23T00:15:58.098Z,13.10
2018-02-23T00:18:25.574Z,14.00
2018-02-23T00:20:53.843Z,20.10
2018-02-23T00:23:21.323Z,13.57
2018-02-23T00:25:48.835Z,12.93
2018-02-23T00:28:16.320Z,13.73
2018-02-23T00:30:43.820Z,14.47
2018-02-23T00:33:11.309Z,18.07
2018-02-23T00:35:38.809Z,13.60
2018-02-23T00:38:06.291Z,17.03
2018-02-23T00:40:33.787Z,12.50
2018-02-23T00:43:01.263Z,17.27
2018-02-23T00:45:28.768Z,14.27
2018-02-23T00:47:57.015Z,14.90
2018-02-23T00:50:24.508Z,13.40
2018-02-23T00:52:51.995Z,16.83
2018-02-23T00:55:20.265Z,12.83
2018-02-23T00:57:47.741Z,12.03
2018-02-23T01:00:15.294Z,15.80
2018-02-23T01:02:42.727Z,13.17
2018-02-23T01:05:10.987Z,12.70
2018-02-23T01:07:39.249Z,13.87
2018-02-23T01:10:06.755Z,14.50
2018-02-23T01:12:34.249Z,15.67
2018-02-23T01:15:02.520Z,16.43
2018-02-23T01:17:30.015Z,12.13
2018-02-23T01:19:57.515Z,12.30
2018-02-23T01:22:24.987Z,13.90
2018-02-23T01:24:53.462Z,15.13
2018-02-23T01:27:20.934Z,12.97
2018-02-23T01:29:48.438Z,14.03
2018-02-23T01:32:16.685Z,14.37
2018-02-23T01:34:44.172Z,16.00
2018-02-23T01:37:11.680Z,12.80
2018-02-23T01:39:39.923Z,14.03
2018-02-23T01:42:07.419Z,17.60
2018-02-23T01:44:34.888Z,15.77
2018-02-23T01:47:13.036Z,15.20
2018-02-23T01:49:40.522Z,14.10
2018-02-23T01:52:08.023Z,17.20
2018-02-23T01:54:35.505Z,17.67
2018-02-23T01:57:02.999Z,14.73
2018-02-23T01:59:31.244Z,16.33
2018-02-23T02:01:58.739Z,12.73
2018-02-23T02:04:26.220Z,14.87
2018-02-23T02:06:53.728Z,13.17
2018-02-23T02:09:21.207Z,16.77
2018-02-23T02:11:48.744Z,15.93
2018-02-23T02:14:16.987Z,14.80
2018-02-23T02:16:44.483Z,16.10
2018-02-23T02:19:11.962Z,20.93
2018-02-23T02:21:40.219Z,13.43
2018-02-23T02:24:07.704Z,13.80
2018-02-23T02:26:35.221Z,14.27
2018-02-23T02:29:02.708Z,17.23
2018-02-23T02:31:30.203Z,15.73
2018-02-23T02:33:57.692Z,13.83
2018-02-23T02:36:25.210Z,17.87
2018-02-23T02:38:52.697Z,13.10
2018-02-23T02:41:20.204Z,13.33
2018-02-23T02:43:48.465Z,13.30
2018-02-23T02:46:15.976Z,13.07
2018-02-23T02:48:44.228Z,11.07
2018-02-23T02:51:11.737Z,16.10
2018-02-23T02:53:39.993Z,11.50
2018-02-23T02:56:07.505Z,13.53
2018-02-23T02:58:35.002Z,13.77
2018-02-23T03:01:02.513Z,14.53
2018-02-23T03:03:30.005Z,12.53
2018-02-23T03:06:07.962Z,13.23
2018-02-23T03:08:35.458Z,14.50
2018-02-23T03:11:02.972Z,11.70
2018-02-23T03:13:31.227Z,12.47
2018-02-23T03:15:58.740Z,13.93
2018-02-23T03:18:26.229Z,13.23
2018-02-23T03:20:53.737Z,13.17
2018-02-23T03:23:21.226Z,13.53
2018-02-23T03:25:49.504Z,15.20
2018-02-23T03:28:16.994Z,13.53
2018-02-23T03:30:45.282Z,11.93
2018-02-23T03:33:12.778Z,15.33
2018-02-23T03:35:40.292Z,14.00
2018-02-23T03:38:07.788Z,13.27
2018-02-23T03:40:36.074Z,14.50
2018-02-23T03:43:04.330Z,13.57
2018-02-23T03:45:31.839Z,12.97
2018-02-23T03:48:00.102Z,13.40
2018-02-23T03:50:27.621Z,13.63
2018-02-23T03:52:55.113Z,10.60
2018-02-23T03:55:22.627Z,12.53
2018-02-23T03:57:50.880Z,12.60
2018-02-23T04:00:21.844Z,12.80
2018-02-23T04:02:49.341Z,14.07
2018-02-23T04:05:17.621Z,12.03
2018-02-23T04:07:45.900Z,14.63
2018-02-23T04:10:13.392Z,12.50
2018-02-23T04:12:41.669Z,13.70
2018-02-23T04:15:09.170Z,12.77
2018-02-23T04:17:36.693Z,9.47
2018-02-23T04:20:04.192Z,13.83
2018-02-23T04:22:32.467Z,12.40
2018-02-23T04:24:59.961Z,15.73
2018-02-23T04:27:27.474Z,12.23
2018-02-23T04:29:54.969Z,14.20
2018-02-23T04:32:22.493Z,9.33
2018-02-23T04:34:49.989Z,11.07
2018-02-23T04:37:17.501Z,14.00
2018-02-23T04:39:45.001Z,14.20
2018-02-23T04:42:12.513Z,14.07
2018-02-23T04:44:40.000Z,13.03
2018-02-23T04:47:07.517Z,14.93
2018-02-23T04:49:35.008Z,14.67
2018-02-23T04:52:02.529Z,16.37
2018-02-23T04:54:30.030Z,15.73
2018-02-23T04:56:57.545Z,11.40
2018-02-23T04:59:25.902Z,15.60
2018-02-23T05:01:53.416Z,14.10
2018-02-23T05:04:20.906Z,19.20
2018-02-23T05:06:49.190Z,12.33
2018-02-23T05:09:17.453Z,12.60
2018-02-23T05:11:44.968Z,12.17
2018-02-23T05:14:12.456Z,14.17
2018-02-23T05:16:39.965Z,13.83
2018-02-23T05:19:07.455Z,13.17
2018-02-23T05:21:35.745Z,10.90
2018-02-23T05:24:03.287Z,12.53
2018-02-23T05:26:30.756Z,11.53
2018-02-23T05:28:58.248Z,16.63
2018-02-23T05:31:26.526Z,10.47
2018-02-23T05:33:54.028Z,13.13
2018-02-23T05:36:21.537Z,14.33
2018-02-23T05:38:49.034Z,14.10
2018-02-23T05:41:16.550Z,17.43
2018-02-23T05:43:44.050Z,14.57
2018-02-23T05:46:11.566Z,11.63
2018-02-23T05:48:39.820Z,12.60
2018-02-23T05:51:07.341Z,15.20
2018-02-23T05:53:34.843Z,12.57
2018-02-23T05:56:02.369Z,12.10
2018-02-23T05:58:30.629Z,14.90
2018-02-23T06:00:58.148Z,14.63
2018-02-23T06:03:25.650Z,11.10
2018-02-23T06:05:53.170Z,10.97
2018-02-23T06:08:21.428Z,14.83
2018-02-23T06:10:48.941Z,10.47
2018-02-23T06:13:16.467Z,15.70
2018-02-23T06:15:49.673Z,14.60
2018-02-23T06:18:22.789Z,16.70
2018-02-23T06:20:50.289Z,11.07
2018-02-23T06:23:17.804Z,12.20
2018-02-23T06:25:45.301Z,15.87
2018-02-23T06:28:13.583Z,14.73
2018-02-23T06:30:41.077Z,15.40
2018-02-23T06:33:10.561Z,13.03
2018-02-23T06:35:38.060Z,16.00
2018-02-23T06:38:06.336Z,12.57
2018-02-23T06:40:33.838Z,12.20
2018-02-23T06:43:01.352Z,16.50
2018-02-23T06:45:28.848Z,16.20
2018-02-23T06:47:56.364Z,18.97
2018-02-23T06:50:23.869Z,15.73
2018-02-23T06:52:51.381Z,15.37
2018-02-23T06:55:18.877Z,14.43
2018-02-23T06:57:46.394Z,18.50
2018-02-23T07:00:13.888Z,15.13
2018-02-23T07:02:41.414Z,14.30
2018-02-23T07:05:08.916Z,16.47
2018-02-23T07:07:37.201Z,15.57
2018-02-23T07:10:05.456Z,14.77
2018-02-23T07:12:32.964Z,13.23
2018-02-23T07:15:01.224Z,19.33
2018-02-23T07:17:28.746Z,15.27
2018-02-23T07:19:56.253Z,15.07
2018-02-23T07:22:23.768Z,15.47
2018-02-23T07:24:52.037Z,14.97
2018-02-23T07:27:19.578Z,14.67
2018-02-23T07:29:47.069Z,23.93
2018-02-23T07:32:14.588Z,20.80
2018-02-23T07:34:42.097Z,13.60
2018-02-23T07:37:09.622Z,19.20
2018-02-23T07:39:37.185Z,15.43
2018-02-23T07:42:05.472Z,13.80
2018-02-23T07:44:33.729Z,13.00
2018-02-23T07:47:01.217Z,18.13
2018-02-23T07:49:28.732Z,15.03
2018-02-23T07:51:56.228Z,15.30
2018-02-23T07:54:23.731Z,20.57
2018-02-23T07:56:51.989Z,16.73
2018-02-23T07:59:19.506Z,16.57
2018-02-23T08:01:47.761Z,13.30
2018-02-23T08:04:15.275Z,15.60
2018-02-23T08:06:42.846Z,17.40
2018-02-23T08:09:10.382Z,13.30
2018-02-23T08:11:37.886Z,15.60
2018-02-23T08:14:20.480Z,15.13
2018-02-23T08:16:48.755Z,14.17
2018-02-23T08:19:16.261Z,15.00
2018-02-23T08:21:44.519Z,15.30
2018-02-23T08:24:12.045Z,16.20
2018-02-23T08:26:39.545Z,17.63
2018-02-23T08:29:07.032Z,13.20
2018-02-23T08:31:34.540Z,14.93
2018-02-23T08:34:02.041Z,21.13
2018-02-23T08:36:29.548Z,16.63
2018-02-23T08:38:57.037Z,17.63
2018-02-23T08:41:25.324Z,17.93
2018-02-23T08:43:53.580Z,123.63
2018-02-23T08:46:21.115Z,21.77
2018-02-23T08:48:48.614Z,18.83
2018-02-23T08:51:16.120Z,12.90
2018-02-23T08:53:45.386Z,15.70
2018-02-23T08:56:12.904Z,17.67
2018-02-23T08:58:41.163Z,15.67
2018-02-23T09:01:08.676Z,17.90
2018-02-23T09:03:36.164Z,22.73
2018-02-23T09:06:03.681Z,22.50
2018-02-23T09:08:31.181Z,26.80
2018-02-23T09:10:59.471Z,22.83
2018-02-23T09:13:27.732Z,17.80
2018-02-23T09:15:55.224Z,18.80
2018-02-23T09:18:23.501Z,21.77
2018-02-23T09:20:50.990Z,21.53
2018-02-23T09:23:18.517Z,20.77
2018-02-23T09:25:46.012Z,26.27
2018-02-23T09:28:14.289Z,26.40
2018-02-23T09:30:41.794Z,20.87
2018-02-23T09:33:09.447Z,20.80
2018-02-23T09:35:53.507Z,20.40
2018-02-23T09:38:21.790Z,20.97
2018-02-23T09:40:49.280Z,24.93
2018-02-23T09:43:17.565Z,21.10
2018-02-23T09:45:49.032Z,22.17
2018-02-23T09:48:16.585Z,22.10
2018-02-23T09:50:44.839Z,19.07
2018-02-23T09:53:12.357Z,18.80
2018-02-23T09:55:40.612Z,21.20
2018-02-23T09:58:08.121Z,22.50
2018-02-23T10:00:41.850Z,19.80
2018-02-23T10:03:09.362Z,20.10
2018-02-23T10:05:36.860Z,20.87
2018-02-23T10:08:04.372Z,40.23
2018-02-23T10:10:32.632Z,21.60
2018-02-23T10:13:00.903Z,18.67
2018-02-23T10:15:28.407Z,18.37
2018-02-23T10:17:55.913Z,18.93
2018-02-23T10:20:23.409Z,22.00
2018-02-23T10:22:50.929Z,22.40
2018-02-23T10:25:19.187Z,16.30
2018-02-23T10:27:47.525Z,20.60
2018-02-23T10:30:15.790Z,16.73
2018-02-23T10:32:43.358Z,17.50
2018-02-23T10:35:10.829Z,19.90
2018-02-23T10:37:38.341Z,23.43
2018-02-23T10:40:05.828Z,36.20
2018-02-23T10:42:33.348Z,17.33
2018-02-23T10:45:00.837Z,19.23
2018-02-23T10:47:28.358Z,24.23
2018-02-23T10:49:56.611Z,21.77
2018-02-23T10:52:24.123Z,16.60
2018-02-23T10:54:52.382Z,22.40
2018-02-23T10:57:19.905Z,22.23
2018-02-23T10:59:47.396Z,16.60
2018-02-23T11:02:14.915Z,17.97
2018-02-23T11:04:42.434Z,17.93
2018-02-23T11:07:09.929Z,16.73
2018-02-23T11:09:37.454Z,22.60
2018-02-23T11:12:04.953Z,21.67
2018-02-23T11:14:32.484Z,17.40
2018-02-23T11:17:00.745Z,18.37
2018-02-23T11:19:28.260Z,19.40
2018-02-23T11:22:01.182Z,26.83
2018-02-23T11:24:28.709Z,17.80
2018-02-23T11:26:56.209Z,19.40
2018-02-23T11:29:23.729Z,20.73
2018-02-23T11:31:51.229Z,22.93
2018-02-23T11:34:18.747Z,17.13
2018-02-23T11:36:46.245Z,18.33
2018-02-23T11:39:14.538Z,17.57
2018-02-23T11:41:42.798Z,19.87
2018-02-23T11:44:10.308Z,17.83
2018-02-23T11:46:38.574Z,16.27
2018-02-23T11:49:06.096Z,20.00
2018-02-23T11:51:33.592Z,18.73
2018-02-23T11:54:01.105Z,19.37
2018-02-23T11:56:29.358Z,17.40
2018-02-23T11:58:56.895Z,16.73
2018-02-23T12:01:24.384Z,18.80
2018-02-23T12:03:51.896Z,19.73
2018-02-23T12:06:20.158Z,18.33
2018-02-23T12:08:47.681Z,21.03
2018-02-23T12:11:15.186Z,21.07
2018-02-23T12:13:42.704Z,17.40
2018-02-23T12:16:12.880Z,32.87
2018-02-23T12:18:40.388Z,24.53
2018-02-23T12:21:07.904Z,22.30
2018-02-23T12:23:35.425Z,17.87
2018-02-23T12:26:02.923Z,19.50
2018-02-23T12:28:30.433Z,19.63
2018-02-23T12:30:57.925Z,17.90
2018-02-23T12:33:25.442Z,22.03
2018-02-23T12:35:52.942Z,18.90
2018-02-23T12:38:20.437Z,17.00
2018-02-23T12:40:47.949Z,17.57
2018-02-23T12:43:15.440Z,19.23
2018-02-23T12:45:43.741Z,21.53
2018-02-23T12:48:11.242Z,21.60
2018-02-23T12:50:38.761Z,19.67
2018-02-23T12:53:06.254Z,21.33
2018-02-23T12:55:33.769Z,23.87
2018-02-23T12:58:02.033Z,26.40
2018-02-23T13:00:29.549Z,21.93
2018-02-23T13:02:57.040Z,20.17
2018-02-23T13:05:24.553Z,22.23
2018-02-23T13:07:52.048Z,22.70
2018-02-23T13:10:20.332Z,24.80
2018-02-23T13:12:48.589Z,22.67
2018-02-23T13:15:18.909Z,25.90
2018-02-23T13:17:46.406Z,26.50
2018-02-23T13:20:13.925Z,21.90
2018-02-23T13:22:41.412Z,24.80
2018-02-23T13:25:08.931Z,23.50
2018-02-23T13:27:36.432Z,24.73
2018-02-23T13:30:06.000Z,23.40
2018-02-23T13:32:33.497Z,27.07
2018-02-23T13:35:01.782Z,23.13
2018-02-23T13:37:30.049Z,22.87
2018-02-23T13:39:57.564Z,21.40
2018-02-23T13:42:26.921Z,23.97
2018-02-23T13:44:54.450Z,25.97
2018-02-23T13:47:21.944Z,23.47
2018-02-23T13:49:49.465Z,26.87
2018-02-23T13:52:17.733Z,25.60
2018-02-23T13:54:45.273Z,28.37
2018-02-23T13:57:12.805Z,20.50
2018-02-23T13:59:40.336Z,23.80
2018-02-23T14:02:07.842Z,26.37
2018-02-23T14:04:36.127Z,25.20
2018-02-23T14:07:09.259Z,32.50
2018-02-23T14:09:36.781Z,28.10
2018-02-23T14:12:05.069Z,24.13
2018-02-23T14:14:32.594Z,26.43
2018-02-23T14:17:00.092Z,29.33
2018-02-23T14:19:27.627Z,27.33
2018-02-23T14:21:55.124Z,27.70
2018-02-23T14:24:22.653Z,28.60
2018-02-23T14:26:50.978Z,20.30
2018-02-23T14:29:18.514Z,25.90
2018-02-23T14:31:46.020Z,27.10
2018-02-23T14:34:13.535Z,31.53
2018-02-23T14:36:41.037Z,26.93
2018-02-23T14:39:08.553Z,27.00
2018-02-23T14:41:36.057Z,28.50
2018-02-23T14:44:04.346Z,27.07
2018-02-23T14:46:32.608Z,22.97
2018-02-23T14:49:22.961Z,26.17
2018-02-23T14:51:50.458Z,27.03
2018-02-23T14:54:17.984Z,26.80
2018-02-23T14:56:46.255Z,28.83
2018-02-23T14:59:13.761Z,31.87
2018-02-23T15:01:41.280Z,28.43
2018-02-23T15:04:08.780Z,28.40
2018-02-23T15:06:38.068Z,28.30
2018-02-23T15:09:05.557Z,27.43
2018-02-23T15:11:33.078Z,31.43
2018-02-23T15:14:00.578Z,24.53
2018-02-23T15:16:28.110Z,27.47
2018-02-23T15:18:55.613Z,28.30
2018-02-23T15:21:23.129Z,26.00
2018-02-23T15:23:51.391Z,39.43
2018-02-23T15:26:18.922Z,35.00
2018-02-23T15:28:46.420Z,26.93
2018-02-23T15:31:25.765Z,25.70
2018-02-23T15:33:53.266Z,27.73
2018-02-23T15:36:28.482Z,22.97
2018-02-23T15:39:06.148Z,23.10
2018-02-23T15:41:33.665Z,33.47
2018-02-23T15:44:01.161Z,21.27
2018-02-23T15:46:28.688Z,26.40
2018-02-23T15:49:01.776Z,26.43
2018-02-23T15:51:34.922Z,31.47
2018-02-23T15:54:02.433Z,27.80
2018-02-23T15:56:29.954Z,26.07
2018-02-23T15:58:57.450Z,29.97
2018-02-23T16:01:24.971Z,27.20
2018-02-23T16:03:52.496Z,26.40
2018-02-23T16:06:20.772Z,25.30
2018-02-23T16:08:48.264Z,30.53
2018-02-23T16:11:16.541Z,31.70
2018-02-23T16:13:44.812Z,21.80
2018-02-23T16:16:13.115Z,27.33
2018-02-23T16:18:41.393Z,27.53
2018-02-23T16:21:08.919Z,30.20
2018-02-23T16:23:36.433Z,24.97
2018-02-23T16:26:03.947Z,25.77
2018-02-23T16:28:31.457Z,22.63
2018-02-23T16:30:58.989Z,25.70
2018-02-23T16:33:26.484Z,27.30
2018-02-23T16:35:54.008Z,24.17
2018-02-23T16:38:21.519Z,25.90
2018-02-23T16:40:49.032Z,24.73
2018-02-23T16:46:10.609Z,26.23
2018-02-23T16:48:38.116Z,22.90
2018-02-23T16:51:05.638Z,22.80
2018-02-23T16:53:33.130Z,25.57
2018-02-23T16:56:01.413Z,22.57
2018-02-23T16:58:29.677Z,25.83
2018-02-23T17:00:57.189Z,24.27
2018-02-23T17:03:24.688Z,23.50
2018-02-23T17:05:52.208Z,26.97
2018-02-23T17:08:19.701Z,25.40
2018-02-23T17:10:47.232Z,27.13
2018-02-23T17:13:14.738Z,34.07
2018-02-23T17:15:42.270Z,44.10
2018-02-23T17:18:09.774Z,27.20
2018-02-23T17:20:38.066Z,29.43
2018-02-23T17:23:06.320Z,32.17
2018-02-23T17:25:33.837Z,29.73
2018-02-23T17:28:01.332Z,29.20
2018-02-23T17:30:28.845Z,33.73
2018-02-23T17:32:56.339Z,29.70
2018-02-23T17:35:24.619Z,30.77
2018-02-23T17:37:52.881Z,22.93
2018-02-23T17:40:20.405Z,28.83
2018-02-23T17:42:47.901Z,30.13
2018-02-23T17:45:15.421Z,23.73
2018-02-23T17:47:42.916Z,28.77
2018-02-23T17:50:10.424Z,31.30
2018-02-23T17:52:37.921Z,29.10
2018-02-23T17:55:06.217Z,24.53
2018-02-23T17:57:34.487Z,26.70
2018-02-23T18:00:01.976Z,31.60
2018-02-23T18:02:30.261Z,33.67
2018-02-23T18:04:58.525Z,30.70
2018-02-23T18:07:26.046Z,27.00
2018-02-23T18:09:53.552Z,29.97
2018-02-23T18:12:21.076Z,28.50
2018-02-23T18:14:48.574Z,26.00
2018-02-23T18:17:16.094Z,33.03
2018-02-23T18:19:44.363Z,31.37
2018-02-23T18:22:11.885Z,49.53
2018-02-23T18:24:39.390Z,34.70
2018-02-23T18:27:06.917Z,31.07
2018-02-23T18:29:34.452Z,34.17
2018-02-23T18:32:02.000Z,32.57
2018-02-23T18:34:29.528Z,35.37
2018-02-23T18:36:57.064Z,31.60
2018-02-23T18:39:24.578Z,33.37
2018-02-23T18:41:52.105Z,35.90
2018-02-23T18:44:19.599Z,32.60
2018-02-23T18:46:48.870Z,33.00
2018-02-23T18:49:16.412Z,35.00
2018-02-23T18:51:44.669Z,35.93
2018-02-23T18:54:12.944Z,41.43
2018-02-23T18:56:40.441Z,34.87
2018-02-23T18:59:07.980Z,160.00
2018-02-23T19:01:35.487Z,44.40
2018-02-23T19:04:03.017Z,37.80
2018-02-23T19:06:30.524Z,38.47
2018-02-23T19:08:58.058Z,41.23
2018-02-23T19:11:25.564Z,40.37
2018-02-23T19:13:53.082Z,37.57
2018-02-23T19:16:20.592Z,33.73
2018-02-23T19:18:48.879Z,34.20
2018-02-23T19:21:16.383Z,35.73
2018-02-23T19:23:43.906Z,39.73
2018-02-23T19:26:12.215Z,34.83
2018-02-23T19:28:40.510Z,38.30
2018-02-23T19:31:08.089Z,43.57
2018-02-23T19:33:35.589Z,31.93
2018-02-23T19:36:03.112Z,38.03
2018-02-23T19:38:31.386Z,34.23
2018-02-23T19:40:59.769Z,36.27
2018-02-23T19:43:27.265Z,44.30
2018-02-23T19:45:55.549Z,42.00
2018-02-23T19:48:23.833Z,39.20
2018-02-23T19:50:52.130Z,39.57
2018-02-23T19:53:20.389Z,47.90
2018-02-23T19:55:47.914Z,40.73
2018-02-23T19:58:15.446Z,38.40
2018-02-23T20:00:42.974Z,44.57
2018-02-23T20:03:10.481Z,35.77
2018-02-23T20:05:38.017Z,38.17
2018-02-23T20:08:05.513Z,37.73
2018-02-23T20:10:33.040Z,39.50
2018-02-23T20:13:00.545Z,37.93
2018-02-23T20:15:28.046Z,39.60
2018-02-23T20:17:55.614Z,43.53
2018-02-23T20:20:23.103Z,37.47
2018-02-23T20:22:50.638Z,40.20
2018-02-23T20:25:18.150Z,39.77
2018-02-23T20:27:45.682Z,36.03
2018-02-23T20:30:13.185Z,45.00
2018-02-23T20:32:41.489Z,64.23
2018-02-23T20:35:09.014Z,44.60
2018-02-23T20:37:36.681Z,40.57
2018-02-23T20:40:04.279Z,34.80
2018-02-23T20:42:31.875Z,35.00
2018-02-23T20:44:59.400Z,43.83
2018-02-23T20:47:26.935Z,41.73
2018-02-23T20:49:54.513Z,42.23
2018-02-23T20:52:22.201Z,39.57
2018-02-23T20:54:49.742Z,40.10
2018-02-23T20:57:17.347Z,39.77
2018-02-23T20:59:44.902Z,36.90
2018-02-23T21:02:12.492Z,40.50
2018-02-23T21:04:40.054Z,39.07
2018-02-23T21:07:07.617Z,38.33
2018-02-23T21:09:35.190Z,41.93
2018-02-23T21:12:02.743Z,38.70
2018-02-23T21:14:30.288Z,43.57
2018-02-23T21:17:00.549Z,49.10
2018-02-23T21:19:28.096Z,40.73
2018-02-23T21:21:56.453Z,40.70
2018-02-23T21:24:24.978Z,42.60
2018-02-23T21:26:53.319Z,38.43
2018-02-23T21:29:20.863Z,43.47
2018-02-23T21:31:48.465Z,37.53
2018-02-23T21:34:16.050Z,43.43
2018-02-23T21:36:43.638Z,38.70
2018-02-23T21:39:11.171Z,53.30
2018-02-23T21:41:50.458Z,44.87
2018-02-23T21:44:20.034Z,42.30
2018-02-23T21:46:47.627Z,49.20
2018-02-23T21:49:15.153Z,40.33
2018-02-23T21:51:42.708Z,47.17
2018-02-23T21:54:11.075Z,42.60
2018-02-23T21:56:38.632Z,42.83
2018-02-23T21:59:06.172Z,39.00
2018-02-23T22:01:33.743Z,36.90
2018-02-23T22:04:01.268Z,40.73
2018-02-23T22:06:28.853Z,42.60
2018-02-23T22:08:57.152Z,36.00
2018-02-23T22:11:24.711Z,43.37
2018-02-23T22:13:52.999Z,40.33
2018-02-23T22:16:21.327Z,36.13
2018-02-23T22:18:48.894Z,43.53
2018-02-23T22:21:16.450Z,37.33
2018-02-23T22:23:44.748Z,42.33
2018-02-23T22:26:12.321Z,40.27
2018-02-23T22:28:39.854Z,42.20
2018-02-23T22:31:07.402Z,44.83
2018-02-23T22:33:34.949Z,41.30
2018-02-23T22:36:02.497Z,42.07
2018-02-23T22:38:30.829Z,39.57
2018-02-23T22:40:58.366Z,36.73
2018-02-23T22:43:25.934Z,37.40
2018-02-23T22:45:53.483Z,41.70
2018-02-23T22:48:21.018Z,41.60
2018-02-23T22:50:48.525Z,40.80
2018-02-23T22:53:16.849Z,33.47
2018-02-23T22:55:44.396Z,36.30
2018-02-23T22:58:11.932Z,44.13
2018-02-23T23:00:43.731Z,39.90
2018-02-23T23:03:12.085Z,35.90
2018-02-23T23:05:39.623Z,35.73
2018-02-23T23:08:07.165Z,40.60
2018-02-23T23:10:35.469Z,39.40
2018-02-23T23:13:03.044Z,37.70
2018-02-23T23:15:30.588Z,34.30
2018-02-23T23:17:58.915Z,36.83
2018-02-23T23:20:26.454Z,34.20
2018-02-23T23:22:54.760Z,40.73
2018-02-23T23:28:19.297Z,40.20
2018-02-23T23:30:46.825Z,37.77
2018-02-23T23:33:14.374Z,35.20
2018-02-23T23:35:41.907Z,38.03
2018-02-23T23:38:10.214Z,36.00
2018-02-23T23:40:37.745Z,35.70
2018-02-23T23:43:05.330Z,36.40
2018-02-23T23:45:33.627Z,34.67
2018-02-23T23:48:01.175Z,37.43
2018-02-23T23:50:28.714Z,36.27
2018-02-23T23:52:56.279Z,36.40
2018-02-23T23:55:23.814Z,38.00
2018-02-23T23:57:51.348Z,33.20
